sensor_id;sensor_type;location;lat;lon;timestamp;P1;durP1;ratioP1;P2;durP2;ratioP2
48789;SDS011;41718;51.980;5.734;2022-10-14T00:01:39;113.53;;;28.92;;
48789;SDS011;41718;51.980;5.734;2022-10-14T00:06:41;52.78;;;20.23;;
48789;SDS011;41718;51.980;5.734;2022-10-14T00:11:42;57.53;;;22.48;;
48789;SDS011;41718;51.980;5.734;2022-10-14T00:16:44;113.30;;;30.15;;
48789;SDS011;41718;51.980;5.734;2022-10-14T00:21:48;94.95;;;30.65;;
48789;SDS011;41718;51.980;5.734;2022-10-14T00:26:49;79.43;;;26.75;;
48789;SDS011;41718;51.980;5.734;2022-10-14T00:31:50;87.30;;;25.80;;
48789;SDS011;41718;51.980;5.734;2022-10-14T00:36:53;140.30;;;36.30;;
48789;SDS011;41718;51.980;5.734;2022-10-14T00:41:55;193.00;;;41.75;;
48789;SDS011;41718;51.980;5.734;2022-10-14T00:46:56;182.82;;;38.78;;
48789;SDS011;41718;51.980;5.734;2022-10-14T00:52:16;151.65;;;35.80;;
48789;SDS011;41718;51.980;5.734;2022-10-14T00:57:21;202.18;;;36.50;;
48789;SDS011;41718;51.980;5.734;2022-10-14T01:02:25;127.70;;;29.85;;
48789;SDS011;41718;51.980;5.734;2022-10-14T01:23:29;74.13;;;23.85;;
48789;SDS011;41718;51.980;5.734;2022-10-14T01:34:06;85.70;;;23.55;;
48789;SDS011;41718;51.980;5.734;2022-10-14T01:44:19;51.13;;;20.38;;
48789;SDS011;41718;51.980;5.734;2022-10-14T01:49:25;92.15;;;26.92;;
48789;SDS011;41718;51.980;5.734;2022-10-14T01:54:34;146.40;;;32.22;;
48789;SDS011;41718;51.980;5.734;2022-10-14T01:59:39;58.85;;;22.80;;
48789;SDS011;41718;51.980;5.734;2022-10-14T02:04:42;159.88;;;35.83;;
48789;SDS011;41718;51.980;5.734;2022-10-14T02:14:59;68.45;;;29.90;;
48789;SDS011;41718;51.980;5.734;2022-10-14T02:25:25;61.05;;;29.38;;
48789;SDS011;41718;51.980;5.734;2022-10-14T02:30:32;106.72;;;33.40;;
48789;SDS011;41718;51.980;5.734;2022-10-14T02:35:38;123.47;;;43.38;;
48789;SDS011;41718;51.980;5.734;2022-10-14T02:40:42;88.00;;;37.55;;
48789;SDS011;41718;51.980;5.734;2022-10-14T02:45:46;80.00;;;35.75;;
48789;SDS011;41718;51.980;5.734;2022-10-14T02:50:48;103.10;;;36.75;;
48789;SDS011;41718;51.980;5.734;2022-10-14T02:55:49;80.50;;;35.97;;
48789;SDS011;41718;51.980;5.734;2022-10-14T03:00:51;85.80;;;36.25;;
48789;SDS011;41718;51.980;5.734;2022-10-14T03:05:53;104.82;;;36.85;;
48789;SDS011;41718;51.980;5.734;2022-10-14T03:10:54;88.32;;;37.38;;
48789;SDS011;41718;51.980;5.734;2022-10-14T03:15:58;118.05;;;42.40;;
48789;SDS011;41718;51.980;5.734;2022-10-14T03:20:59;97.53;;;40.03;;
48789;SDS011;41718;51.980;5.734;2022-10-14T03:26:01;114.18;;;43.80;;
48789;SDS011;41718;51.980;5.734;2022-10-14T03:31:02;119.43;;;46.55;;
48789;SDS011;41718;51.980;5.734;2022-10-14T03:36:04;137.95;;;46.97;;
48789;SDS011;41718;51.980;5.734;2022-10-14T03:41:05;125.55;;;47.55;;
48789;SDS011;41718;51.980;5.734;2022-10-14T03:46:07;156.63;;;51.15;;
48789;SDS011;41718;51.980;5.734;2022-10-14T03:51:08;138.30;;;50.80;;
48789;SDS011;41718;51.980;5.734;2022-10-14T03:56:10;168.88;;;52.95;;
48789;SDS011;41718;51.980;5.734;2022-10-14T04:01:11;165.10;;;55.95;;
48789;SDS011;41718;51.980;5.734;2022-10-14T04:06:13;147.65;;;53.58;;
48789;SDS011;41718;51.980;5.734;2022-10-14T04:11:14;158.70;;;55.03;;
48789;SDS011;41718;51.980;5.734;2022-10-14T04:16:17;169.52;;;54.47;;
48789;SDS011;41718;51.980;5.734;2022-10-14T04:21:19;174.82;;;56.90;;
48789;SDS011;41718;51.980;5.734;2022-10-14T04:26:20;154.27;;;54.03;;
48789;SDS011;41718;51.980;5.734;2022-10-14T04:31:22;162.75;;;54.05;;
48789;SDS011;41718;51.980;5.734;2022-10-14T04:36:23;178.23;;;60.78;;
48789;SDS011;41718;51.980;5.734;2022-10-14T04:41:24;147.70;;;52.90;;
48789;SDS011;41718;51.980;5.734;2022-10-14T04:46:26;146.52;;;53.65;;
48789;SDS011;41718;51.980;5.734;2022-10-14T04:51:27;164.40;;;55.58;;
48789;SDS011;41718;51.980;5.734;2022-10-14T04:56:29;153.65;;;56.17;;
48789;SDS011;41718;51.980;5.734;2022-10-14T05:01:31;165.15;;;56.28;;
48789;SDS011;41718;51.980;5.734;2022-10-14T05:06:35;180.73;;;60.33;;
48789;SDS011;41718;51.980;5.734;2022-10-14T05:11:38;157.30;;;55.70;;
48789;SDS011;41718;51.980;5.734;2022-10-14T05:16:39;169.50;;;58.53;;
48789;SDS011;41718;51.980;5.734;2022-10-14T05:21:41;172.23;;;60.95;;
48789;SDS011;41718;51.980;5.734;2022-10-14T05:26:42;192.30;;;66.28;;
48789;SDS011;41718;51.980;5.734;2022-10-14T05:31:43;154.00;;;55.55;;
48789;SDS011;41718;51.980;5.734;2022-10-14T05:36:45;152.25;;;57.55;;
48789;SDS011;41718;51.980;5.734;2022-10-14T05:41:46;153.57;;;57.38;;
48789;SDS011;41718;51.980;5.734;2022-10-14T05:46:48;160.43;;;60.58;;
48789;SDS011;41718;51.980;5.734;2022-10-14T05:51:50;140.27;;;53.72;;
48789;SDS011;41718;51.980;5.734;2022-10-14T05:56:51;154.52;;;55.35;;
48789;SDS011;41718;51.980;5.734;2022-10-14T06:01:53;113.10;;;47.67;;
48789;SDS011;41718;51.980;5.734;2022-10-14T06:06:54;120.47;;;47.42;;
48789;SDS011;41718;51.980;5.734;2022-10-14T06:11:56;102.25;;;45.17;;
48789;SDS011;41718;51.980;5.734;2022-10-14T06:16:57;113.50;;;45.80;;
48789;SDS011;41718;51.980;5.734;2022-10-14T06:21:59;96.25;;;47.72;;
48789;SDS011;41718;51.980;5.734;2022-10-14T06:27:00;107.25;;;49.92;;
48789;SDS011;41718;51.980;5.734;2022-10-14T06:32:05;95.40;;;47.20;;
48789;SDS011;41718;51.980;5.734;2022-10-14T06:37:08;100.13;;;55.65;;
48789;SDS011;41718;51.980;5.734;2022-10-14T06:42:12;89.30;;;44.88;;
48789;SDS011;41718;51.980;5.734;2022-10-14T06:47:14;98.40;;;42.30;;
48789;SDS011;41718;51.980;5.734;2022-10-14T06:52:15;106.25;;;50.55;;
48789;SDS011;41718;51.980;5.734;2022-10-14T06:57:19;77.55;;;35.78;;
48789;SDS011;41718;51.980;5.734;2022-10-14T07:02:21;85.05;;;37.17;;
48789;SDS011;41718;51.980;5.734;2022-10-14T07:07:23;77.63;;;35.22;;
48789;SDS011;41718;51.980;5.734;2022-10-14T07:12:25;79.70;;;40.03;;
48789;SDS011;41718;51.980;5.734;2022-10-14T07:17:27;77.30;;;36.97;;
48789;SDS011;41718;51.980;5.734;2022-10-14T07:22:28;80.25;;;36.17;;
48789;SDS011;41718;51.980;5.734;2022-10-14T07:27:38;76.93;;;35.53;;
48789;SDS011;41718;51.980;5.734;2022-10-14T07:32:40;73.00;;;33.90;;
48789;SDS011;41718;51.980;5.734;2022-10-14T07:37:41;72.25;;;35.60;;
48789;SDS011;41718;51.980;5.734;2022-10-14T07:42:43;87.78;;;39.90;;
48789;SDS011;41718;51.980;5.734;2022-10-14T07:47:48;82.90;;;42.95;;
48789;SDS011;41718;51.980;5.734;2022-10-14T07:52:51;72.28;;;35.70;;
48789;SDS011;41718;51.980;5.734;2022-10-14T07:57:52;76.28;;;36.65;;
48789;SDS011;41718;51.980;5.734;2022-10-14T08:02:54;87.50;;;39.60;;
48789;SDS011;41718;51.980;5.734;2022-10-14T08:07:55;80.25;;;33.85;;
48789;SDS011;41718;51.980;5.734;2022-10-14T08:12:57;65.10;;;30.17;;
48789;SDS011;41718;51.980;5.734;2022-10-14T08:17:58;61.42;;;30.65;;
48789;SDS011;41718;51.980;5.734;2022-10-14T08:23:00;58.03;;;28.30;;
48789;SDS011;41718;51.980;5.734;2022-10-14T08:28:01;61.28;;;30.67;;
48789;SDS011;41718;51.980;5.734;2022-10-14T08:33:03;64.20;;;29.23;;
48789;SDS011;41718;51.980;5.734;2022-10-14T08:38:04;59.90;;;28.75;;
48789;SDS011;41718;51.980;5.734;2022-10-14T08:43:07;56.42;;;28.33;;
48789;SDS011;41718;51.980;5.734;2022-10-14T08:48:24;57.65;;;29.27;;
48789;SDS011;41718;51.980;5.734;2022-10-14T08:53:29;58.85;;;28.75;;
48789;SDS011;41718;51.980;5.734;2022-10-14T08:58:45;57.67;;;28.00;;
48789;SDS011;41718;51.980;5.734;2022-10-14T09:03:50;52.35;;;28.02;;
48789;SDS011;41718;51.980;5.734;2022-10-14T09:09:06;54.70;;;27.15;;
48789;SDS011;41718;51.980;5.734;2022-10-14T09:14:17;52.63;;;26.33;;
48789;SDS011;41718;51.980;5.734;2022-10-14T09:19:31;45.85;;;25.17;;
48789;SDS011;41718;51.980;5.734;2022-10-14T09:24:36;41.28;;;23.70;;
48789;SDS011;41718;51.980;5.734;2022-10-14T09:35:48;45.22;;;24.63;;
48789;SDS011;41718;51.980;5.734;2022-10-14T09:40:52;48.15;;;26.63;;
48789;SDS011;41718;51.980;5.734;2022-10-14T09:46:05;48.03;;;25.88;;
48789;SDS011;41718;51.980;5.734;2022-10-14T09:51:09;37.75;;;23.38;;
48789;SDS011;41718;51.980;5.734;2022-10-14T09:56:29;43.20;;;24.17;;
48789;SDS011;41718;51.980;5.734;2022-10-14T10:01:47;42.55;;;24.90;;
48789;SDS011;41718;51.980;5.734;2022-10-14T10:06:51;40.35;;;24.33;;
48789;SDS011;41718;51.980;5.734;2022-10-14T10:11:54;40.50;;;24.20;;
48789;SDS011;41718;51.980;5.734;2022-10-14T10:27:20;38.38;;;22.98;;
48789;SDS011;41718;51.980;5.734;2022-10-14T10:32:28;33.03;;;21.85;;
48789;SDS011;41718;51.980;5.734;2022-10-14T11:32:37;24.05;;;17.35;;
48789;SDS011;41718;51.980;5.734;2022-10-14T12:00:27;20.70;;;14.50;;
48789;SDS011;41718;51.980;5.734;2022-10-14T12:05:37;19.90;;;13.90;;
48789;SDS011;41718;51.980;5.734;2022-10-14T12:10:41;17.05;;;12.73;;
48789;SDS011;41718;51.980;5.734;2022-10-14T12:15:48;15.82;;;12.43;;
48789;SDS011;41718;51.980;5.734;2022-10-14T12:27:16;15.93;;;10.90;;
48789;SDS011;41718;51.980;5.734;2022-10-14T12:37:38;9.30;;;7.05;;
48789;SDS011;41718;51.980;5.734;2022-10-14T12:47:44;8.73;;;6.15;;
48789;SDS011;41718;51.980;5.734;2022-10-14T12:52:47;6.70;;;6.00;;
48789;SDS011;41718;51.980;5.734;2022-10-14T12:57:58;6.28;;;5.68;;
48789;SDS011;41718;51.980;5.734;2022-10-14T13:03:02;8.07;;;6.67;;
48789;SDS011;41718;51.980;5.734;2022-10-14T13:08:21;8.30;;;6.63;;
48789;SDS011;41718;51.980;5.734;2022-10-14T13:23:51;8.10;;;6.95;;
48789;SDS011;41718;51.980;5.734;2022-10-14T13:29:22;8.60;;;7.30;;
48789;SDS011;41718;51.980;5.734;2022-10-14T13:39:47;10.50;;;7.75;;
48789;SDS011;41718;51.980;5.734;2022-10-14T13:44:48;8.10;;;7.22;;
48789;SDS011;41718;51.980;5.734;2022-10-14T13:49:50;8.23;;;7.35;;
48789;SDS011;41718;51.980;5.734;2022-10-14T14:05:45;12.38;;;9.88;;
48789;SDS011;41718;51.980;5.734;2022-10-14T14:10:54;12.10;;;9.55;;
48789;SDS011;41718;51.980;5.734;2022-10-14T14:16:26;9.88;;;8.15;;
48789;SDS011;41718;51.980;5.734;2022-10-14T14:21:31;11.40;;;9.32;;
48789;SDS011;41718;51.980;5.734;2022-10-14T14:26:34;10.13;;;7.55;;
48789;SDS011;41718;51.980;5.734;2022-10-14T14:31:37;13.02;;;8.90;;
48789;SDS011;41718;51.980;5.734;2022-10-14T14:36:59;11.30;;;8.48;;
48789;SDS011;41718;51.980;5.734;2022-10-14T14:42:22;9.90;;;6.85;;
48789;SDS011;41718;51.980;5.734;2022-10-14T14:47:25;7.03;;;6.07;;
48789;SDS011;41718;51.980;5.734;2022-10-14T14:52:29;8.57;;;6.47;;
48789;SDS011;41718;51.980;5.734;2022-10-14T14:57:31;9.25;;;6.57;;
48789;SDS011;41718;51.980;5.734;2022-10-14T15:02:40;11.88;;;6.07;;
48789;SDS011;41718;51.980;5.734;2022-10-14T15:07:42;11.23;;;7.93;;
48789;SDS011;41718;51.980;5.734;2022-10-14T15:12:50;11.32;;;6.85;;
48789;SDS011;41718;51.980;5.734;2022-10-14T15:23:42;13.18;;;8.63;;
48789;SDS011;41718;51.980;5.734;2022-10-14T15:29:15;14.13;;;8.85;;
48789;SDS011;41718;51.980;5.734;2022-10-14T15:34:26;13.52;;;9.95;;
48789;SDS011;41718;51.980;5.734;2022-10-14T15:40:00;13.80;;;8.80;;
48789;SDS011;41718;51.980;5.734;2022-10-14T15:45:09;16.90;;;9.20;;
48789;SDS011;41718;51.980;5.734;2022-10-14T15:50:15;15.68;;;10.25;;
48789;SDS011;41718;51.980;5.734;2022-10-14T15:55:28;18.77;;;12.02;;
48789;SDS011;41718;51.980;5.734;2022-10-14T16:00:37;17.40;;;11.30;;
48789;SDS011;41718;51.980;5.734;2022-10-14T16:05:55;17.90;;;12.30;;
48789;SDS011;41718;51.980;5.734;2022-10-14T16:11:00;20.90;;;12.90;;
48789;SDS011;41718;51.980;5.734;2022-10-14T16:16:09;21.38;;;13.30;;
48789;SDS011;41718;51.980;5.734;2022-10-14T16:21:25;22.75;;;13.88;;
48789;SDS011;41718;51.980;5.734;2022-10-14T16:26:39;22.45;;;14.05;;
48789;SDS011;41718;51.980;5.734;2022-10-14T16:31:43;29.63;;;15.98;;
48789;SDS011;41718;51.980;5.734;2022-10-14T16:36:49;26.45;;;15.95;;
48789;SDS011;41718;51.980;5.734;2022-10-14T16:41:57;25.25;;;16.02;;
48789;SDS011;41718;51.980;5.734;2022-10-14T16:47:12;28.88;;;17.20;;
48789;SDS011;41718;51.980;5.734;2022-10-14T16:52:33;24.48;;;16.13;;
48789;SDS011;41718;51.980;5.734;2022-10-14T16:58:16;28.13;;;18.23;;
48789;SDS011;41718;51.980;5.734;2022-10-14T17:03:20;24.27;;;16.48;;
48789;SDS011;41718;51.980;5.734;2022-10-14T17:08:26;34.30;;;18.92;;
48789;SDS011;41718;51.980;5.734;2022-10-14T17:13:32;28.92;;;19.70;;
48789;SDS011;41718;51.980;5.734;2022-10-14T17:18:48;28.25;;;18.00;;
48789;SDS011;41718;51.980;5.734;2022-10-14T17:23:59;30.73;;;18.20;;
48789;SDS011;41718;51.980;5.734;2022-10-14T17:29:15;29.33;;;18.00;;
48789;SDS011;41718;51.980;5.734;2022-10-14T17:34:28;23.80;;;16.13;;
48789;SDS011;41718;51.980;5.734;2022-10-14T17:39:35;26.35;;;17.58;;
48789;SDS011;41718;51.980;5.734;2022-10-14T17:44:45;30.65;;;18.55;;
48789;SDS011;41718;51.980;5.734;2022-10-14T17:49:52;32.08;;;19.33;;
48789;SDS011;41718;51.980;5.734;2022-10-14T17:55:03;31.15;;;18.85;;
48789;SDS011;41718;51.980;5.734;2022-10-14T18:00:10;34.35;;;19.10;;
48789;SDS011;41718;51.980;5.734;2022-10-14T18:05:38;37.17;;;19.25;;
48789;SDS011;41718;51.980;5.734;2022-10-14T18:10:53;36.35;;;19.00;;
48789;SDS011;41718;51.980;5.734;2022-10-14T18:16:11;32.17;;;17.52;;
48789;SDS011;41718;51.980;5.734;2022-10-14T18:21:16;28.13;;;17.05;;
48789;SDS011;41718;51.980;5.734;2022-10-14T18:26:19;27.98;;;18.35;;
48789;SDS011;41718;51.980;5.734;2022-10-14T18:31:30;24.63;;;16.10;;
48789;SDS011;41718;51.980;5.734;2022-10-14T18:36:39;31.13;;;17.70;;
48789;SDS011;41718;51.980;5.734;2022-10-14T18:41:42;29.55;;;17.88;;
48789;SDS011;41718;51.980;5.734;2022-10-14T18:46:57;45.00;;;27.10;;
48789;SDS011;41718;51.980;5.734;2022-10-14T18:52:03;32.30;;;21.25;;
48789;SDS011;41718;51.980;5.734;2022-10-14T18:57:11;34.45;;;23.10;;
48789;SDS011;41718;51.980;5.734;2022-10-14T19:02:21;32.58;;;20.75;;
48789;SDS011;41718;51.980;5.734;2022-10-14T19:07:23;33.30;;;22.48;;
48789;SDS011;41718;51.980;5.734;2022-10-14T19:12:30;38.50;;;23.48;;
48789;SDS011;41718;51.980;5.734;2022-10-14T19:17:45;44.65;;;28.95;;
48789;SDS011;41718;51.980;5.734;2022-10-14T19:22:54;48.70;;;29.85;;
48789;SDS011;41718;51.980;5.734;2022-10-14T19:27:57;46.17;;;28.73;;
48789;SDS011;41718;51.980;5.734;2022-10-14T19:33:05;40.05;;;24.38;;
48789;SDS011;41718;51.980;5.734;2022-10-14T19:38:16;40.90;;;24.83;;
48789;SDS011;41718;51.980;5.734;2022-10-14T19:43:23;35.22;;;22.92;;
48789;SDS011;41718;51.980;5.734;2022-10-14T19:48:28;46.40;;;26.08;;
48789;SDS011;41718;51.980;5.734;2022-10-14T19:53:30;40.88;;;27.15;;
48789;SDS011;41718;51.980;5.734;2022-10-14T20:04:07;36.50;;;22.98;;
48789;SDS011;41718;51.980;5.734;2022-10-14T20:09:27;34.50;;;21.83;;
48789;SDS011;41718;51.980;5.734;2022-10-14T20:14:43;51.53;;;32.20;;
48789;SDS011;41718;51.980;5.734;2022-10-14T20:19:53;75.90;;;44.45;;
48789;SDS011;41718;51.980;5.734;2022-10-14T20:24:57;52.47;;;30.77;;
48789;SDS011;41718;51.980;5.734;2022-10-14T20:30:09;47.03;;;29.65;;
48789;SDS011;41718;51.980;5.734;2022-10-14T20:35:17;38.65;;;24.17;;
48789;SDS011;41718;51.980;5.734;2022-10-14T20:40:20;35.63;;;22.05;;
48789;SDS011;41718;51.980;5.734;2022-10-14T20:45:24;34.25;;;23.02;;
48789;SDS011;41718;51.980;5.734;2022-10-14T20:50:33;34.95;;;21.52;;
48789;SDS011;41718;51.980;5.734;2022-10-14T20:55:39;24.08;;;16.88;;
48789;SDS011;41718;51.980;5.734;2022-10-14T21:01:10;89.28;;;23.00;;
48789;SDS011;41718;51.980;5.734;2022-10-14T21:06:30;20.80;;;16.13;;
48789;SDS011;41718;51.980;5.734;2022-10-14T21:11:50;29.42;;;20.27;;
48789;SDS011;41718;51.980;5.734;2022-10-14T21:16:58;29.08;;;18.77;;
48789;SDS011;41718;51.980;5.734;2022-10-14T21:22:09;29.02;;;20.10;;
48789;SDS011;41718;51.980;5.734;2022-10-14T21:27:14;28.30;;;20.33;;
48789;SDS011;41718;51.980;5.734;2022-10-14T21:32:30;35.25;;;23.33;;
48789;SDS011;41718;51.980;5.734;2022-10-14T21:37:34;34.58;;;22.27;;
48789;SDS011;41718;51.980;5.734;2022-10-14T21:42:39;34.97;;;21.75;;
48789;SDS011;41718;51.980;5.734;2022-10-14T21:47:48;29.08;;;20.08;;
48789;SDS011;41718;51.980;5.734;2022-10-14T21:52:54;30.83;;;21.30;;
48789;SDS011;41718;51.980;5.734;2022-10-14T21:58:06;27.52;;;19.05;;
48789;SDS011;41718;51.980;5.734;2022-10-14T22:03:11;32.45;;;19.73;;
48789;SDS011;41718;51.980;5.734;2022-10-14T22:08:22;30.73;;;18.55;;
48789;SDS011;41718;51.980;5.734;2022-10-14T22:13:27;31.42;;;18.52;;
48789;SDS011;41718;51.980;5.734;2022-10-14T22:18:31;24.58;;;17.58;;
48789;SDS011;41718;51.980;5.734;2022-10-14T22:23:43;25.23;;;17.40;;
48789;SDS011;41718;51.980;5.734;2022-10-14T22:29:00;28.70;;;19.23;;
48789;SDS011;41718;51.980;5.734;2022-10-14T22:34:14;31.60;;;18.88;;
48789;SDS011;41718;51.980;5.734;2022-10-14T22:39:17;36.17;;;21.83;;
48789;SDS011;41718;51.980;5.734;2022-10-14T22:44:18;44.30;;;24.67;;
48789;SDS011;41718;51.980;5.734;2022-10-14T22:49:20;40.53;;;25.50;;
48789;SDS011;41718;51.980;5.734;2022-10-14T22:54:21;49.10;;;26.63;;
48789;SDS011;41718;51.980;5.734;2022-10-14T22:59:23;50.17;;;26.63;;
48789;SDS011;41718;51.980;5.734;2022-10-14T23:04:25;69.22;;;32.88;;
48789;SDS011;41718;51.980;5.734;2022-10-14T23:09:26;69.20;;;33.60;;
48789;SDS011;41718;51.980;5.734;2022-10-14T23:14:28;57.67;;;32.20;;
48789;SDS011;41718;51.980;5.734;2022-10-14T23:19:30;76.63;;;35.95;;
48789;SDS011;41718;51.980;5.734;2022-10-14T23:24:32;72.75;;;34.15;;
48789;SDS011;41718;51.980;5.734;2022-10-14T23:29:33;67.07;;;31.02;;
48789;SDS011;41718;51.980;5.734;2022-10-14T23:34:35;61.28;;;30.17;;
48789;SDS011;41718;51.980;5.734;2022-10-14T23:39:36;56.05;;;28.00;;
48789;SDS011;41718;51.980;5.734;2022-10-14T23:44:38;47.00;;;26.90;;
48789;SDS011;41718;51.980;5.734;2022-10-14T23:49:39;39.53;;;24.40;;
48789;SDS011;41718;51.980;5.734;2022-10-14T23:54:41;43.97;;;25.73;;
48789;SDS011;41718;51.980;5.734;2022-10-14T23:59:42;44.65;;;24.30;;
